Montrose, Minnesota
Current Conditions -  °F | °C
As of 8:55 AM on Thursday 30 Oct 2014 (Local Time) from KCFE Reporting Station
Overcast Overcast  
Wind Chill: 39°   Ceiling: 4900
Heat Index: 39°   Visibility: 10mi
Dew Point: 34°   Wind: 0mph
Humidity: 82%   Direction: NA
Pressure: 30.06"   Gusts: NA
Location:  45.06°N, 93.91°W
Report Text: KCFE 301355Z AUTO 00000KT 10SM OVC049 04/01 A3006 RMK AO2 T00410013
Loading
Personal Weather Stations






























Interactive Weather Map New forecast layout! Learn more

10-Day Weather Forecast

Advertisements
Track Severe Weather on mobile